Time;durP1;ratioP1;P1;durP2;ratioP2;P2;SDS_P1;SDS_P2;PMS_P1;PMS_P2;Temp;Humidity;BMP_temperature;BMP_pressure;BME280_temperature;BME280_humidity;BME280_pressure;Samples;Min_cycle;Max_cycle;Signal;HPM_P1;HPM_P2
2023/12/15 00:00:09;;;;;;;0.00;0.00;;;;;;;;;;1739354;28;20665;-64
2023/12/15 00:01:01;;;;;;;0.00;0.00;;;;;;;;;;1738204;28;20237;-64
2023/12/15 00:01:52;;;;;;;0.00;0.00;;;;;;;;;;1739466;28;20554;-64
2023/12/15 00:02:45;;;;;;;0.00;0.00;;;;;;;;;;1738687;28;20281;-64
2023/12/15 00:03:37;;;;;;;0.00;0.00;;;;;;;;;;1739402;28;20284;-64
2023/12/15 00:04:28;;;;;;;0.00;0.00;;;;;;;;;;1739036;28;20604;-64
2023/12/15 00:05:20;;;;;;;0.00;0.00;;;;;;;;;;1738775;28;20620;-64
2023/12/15 00:06:12;;;;;;;0.00;0.00;;;;;;;;;;1736712;28;20203;-64
2023/12/15 00:07:03;;;;;;;0.00;0.00;;;;;;;;;;1740090;28;20259;-64
2023/12/15 00:07:54;;;;;;;0.00;0.00;;;;;;;;;;1739316;28;20223;-65
2023/12/15 00:08:46;;;;;;;0.00;0.00;;;;;;;;;;1739318;28;20238;-65
2023/12/15 00:09:37;;;;;;;0.10;0.10;;;;;;;;;;1738796;28;20647;-64
2023/12/15 00:10:28;;;;;;;0.20;0.20;;;;;;;;;;1737325;28;20206;-64
2023/12/15 00:11:20;;;;;;;0.00;0.00;;;;;;;;;;1738599;28;20195;-64
2023/12/15 00:12:11;;;;;;;0.00;0.00;;;;;;;;;;1738689;28;20261;-65
2023/12/15 00:13:02;;;;;;;0.00;0.00;;;;;;;;;;1739285;28;20229;-64
2023/12/15 00:13:54;;;;;;;0.15;0.15;;;;;;;;;;1738748;28;20214;-65
2023/12/15 00:14:45;;;;;;;0.03;0.03;;;;;;;;;;1738948;28;20276;-64
2023/12/15 00:15:37;;;;;;;0.13;0.13;;;;;;;;;;1737833;28;20231;-64
2023/12/15 00:16:28;;;;;;;0.08;0.08;;;;;;;;;;1738820;28;20217;-65
2023/12/15 00:17:20;;;;;;;0.10;0.10;;;;;;;;;;1738637;28;20652;-64
2023/12/15 00:18:11;;;;;;;0.00;0.00;;;;;;;;;;1738771;28;20290;-64
2023/12/15 00:19:02;;;;;;;0.00;0.00;;;;;;;;;;1739596;28;20202;-65
2023/12/15 00:19:54;;;;;;;0.00;0.00;;;;;;;;;;1738472;28;20244;-66
2023/12/15 00:20:47;;;;;;;0.00;0.00;;;;;;;;;;1737975;28;20239;-66
2023/12/15 00:21:39;;;;;;;0.10;0.10;;;;;;;;;;1738862;28;20494;-65
2023/12/15 00:22:30;;;;;;;0.00;0.00;;;;;;;;;;1739032;28;20704;-65
2023/12/15 00:23:21;;;;;;;0.15;0.15;;;;;;;;;;1737123;28;20717;-65
2023/12/15 00:24:13;;;;;;;0.00;0.00;;;;;;;;;;1732961;28;20745;-65
2023/12/15 00:25:04;;;;;;;0.00;0.00;;;;;;;;;;1739490;28;20352;-65
2023/12/15 00:25:55;;;;;;;0.00;0.00;;;;;;;;;;1737577;28;20230;-65
2023/12/15 00:26:47;;;;;;;0.00;0.00;;;;;;;;;;1740536;28;20369;-65
2023/12/15 00:27:38;;;;;;;0.00;0.00;;;;;;;;;;1741253;28;20349;-64
2023/12/15 00:28:29;;;;;;;0.00;0.00;;;;;;;;;;1738947;28;20202;-65
2023/12/15 00:29:22;;;;;;;0.00;0.00;;;;;;;;;;1738923;28;20693;-65
2023/12/15 00:30:13;;;;;;;0.10;0.10;;;;;;;;;;1735301;28;20202;-65
2023/12/15 00:31:04;;;;;;;0.00;0.00;;;;;;;;;;1738498;28;20234;-65
2023/12/15 00:31:56;;;;;;;0.10;0.10;;;;;;;;;;1738712;28;20227;-66
2023/12/15 00:32:47;;;;;;;0.00;0.00;;;;;;;;;;1738794;28;20620;-66
2023/12/15 00:33:38;;;;;;;0.00;0.00;;;;;;;;;;1739017;28;20203;-66
2023/12/15 00:34:30;;;;;;;0.10;0.10;;;;;;;;;;1738346;28;20228;-65
2023/12/15 00:35:21;;;;;;;0.30;0.30;;;;;;;;;;1737936;28;20214;-66
2023/12/15 00:36:14;;;;;;;0.00;0.00;;;;;;;;;;1738790;28;20202;-64
2023/12/15 00:37:06;;;;;;;0.00;0.00;;;;;;;;;;1739387;28;20382;-65
2023/12/15 00:37:57;;;;;;;0.10;0.10;;;;;;;;;;1738461;28;20207;-65
2023/12/15 00:38:48;;;;;;;0.10;0.10;;;;;;;;;;1738770;28;20210;-65
2023/12/15 00:39:40;;;;;;;0.10;0.10;;;;;;;;;;1738769;28;20326;-65
2023/12/15 00:40:31;;;;;;;0.30;0.30;;;;;;;;;;1737562;28;20927;-65
2023/12/15 00:41:23;;;;;;;0.00;0.00;;;;;;;;;;1738698;28;20213;-65
2023/12/15 00:42:14;;;;;;;0.10;0.10;;;;;;;;;;1738942;28;20268;-65
2023/12/15 00:43:05;;;;;;;0.10;0.10;;;;;;;;;;1739015;28;20835;-65
2023/12/15 00:43:56;;;;;;;0.00;0.00;;;;;;;;;;1738991;28;20656;-65
2023/12/15 00:44:47;;;;;;;0.00;0.00;;;;;;;;;;1738326;28;20207;-65
2023/12/15 00:45:41;;;;;;;0.00;0.00;;;;;;;;;;1737906;28;20238;-65
2023/12/15 00:46:33;;;;;;;0.10;0.10;;;;;;;;;;1738342;28;20207;-65
2023/12/15 00:47:24;;;;;;;0.15;0.15;;;;;;;;;;1738654;28;20279;-64
2023/12/15 00:48:15;;;;;;;0.10;0.10;;;;;;;;;;1738745;28;20248;-65
2023/12/15 00:49:07;;;;;;;0.00;0.00;;;;;;;;;;1738968;28;20203;-65
2023/12/15 00:49:59;;;;;;;0.00;0.00;;;;;;;;;;1738903;28;20770;-64
2023/12/15 00:50:51;;;;;;;0.00;0.00;;;;;;;;;;1737368;28;20776;-65
2023/12/15 00:51:43;;;;;;;0.00;0.00;;;;;;;;;;1738644;28;20218;-65
2023/12/15 00:52:35;;;;;;;0.00;0.00;;;;;;;;;;1738678;28;20268;-65
2023/12/15 00:53:32;;;;;;;0.10;0.10;;;;;;;;;;1738679;28;20263;-65
2023/12/15 00:54:24;;;;;;;0.05;0.05;;;;;;;;;;1738517;28;20286;-65
2023/12/15 00:55:15;;;;;;;0.20;0.20;;;;;;;;;;1738087;28;20211;-65
2023/12/15 00:56:09;;;;;;;0.00;0.00;;;;;;;;;;1738427;28;20237;-64
2023/12/15 00:57:01;;;;;;;0.10;0.10;;;;;;;;;;1738501;28;20249;-64
2023/12/15 00:57:52;;;;;;;0.00;0.00;;;;;;;;;;1738312;28;20227;-64
2023/12/15 00:58:43;;;;;;;0.20;0.20;;;;;;;;;;1738907;28;20203;-64
2023/12/15 00:59:35;;;;;;;0.05;0.05;;;;;;;;;;1738573;28;20203;-64
2023/12/15 01:00:26;;;;;;;0.00;0.00;;;;;;;;;;1737709;28;20665;-64
2023/12/15 01:01:17;;;;;;;0.00;0.00;;;;;;;;;;1738540;28;20646;-65
2023/12/15 01:02:09;;;;;;;0.03;0.03;;;;;;;;;;1739348;28;20716;-64
2023/12/15 01:03:00;;;;;;;0.10;0.10;;;;;;;;;;1738454;28;20253;-64
2023/12/15 01:03:51;;;;;;;0.00;0.00;;;;;;;;;;1738918;28;20203;-64
2023/12/15 01:04:42;;;;;;;0.10;0.10;;;;;;;;;;1738569;28;20492;-66
2023/12/15 01:05:34;;;;;;;0.10;0.10;;;;;;;;;;1737644;28;20658;-66
2023/12/15 01:06:25;;;;;;;0.10;0.10;;;;;;;;;;1738606;28;20237;-64
2023/12/15 01:07:17;;;;;;;0.10;0.10;;;;;;;;;;1738929;28;20203;-64
2023/12/15 01:08:09;;;;;;;0.10;0.10;;;;;;;;;;1738837;28;20211;-64
2023/12/15 01:09:00;;;;;;;0.00;0.00;;;;;;;;;;1739103;28;20828;-64
2023/12/15 01:09:51;;;;;;;0.10;0.10;;;;;;;;;;1738276;28;20700;-64
2023/12/15 01:10:43;;;;;;;0.22;0.22;;;;;;;;;;1737890;28;20259;-64
2023/12/15 01:11:34;;;;;;;0.10;0.10;;;;;;;;;;1738263;28;20267;-64
2023/12/15 01:12:26;;;;;;;0.00;0.00;;;;;;;;;;1738653;28;20280;-64
2023/12/15 01:13:17;;;;;;;0.00;0.00;;;;;;;;;;1738758;28;20647;-64
2023/12/15 01:14:09;;;;;;;0.10;0.10;;;;;;;;;;1738796;28;20210;-64
2023/12/15 01:15:00;;;;;;;0.00;0.00;;;;;;;;;;1738633;28;20244;-64
2023/12/15 01:15:52;;;;;;;0.10;0.10;;;;;;;;;;1737200;28;20798;-64
2023/12/15 01:16:45;;;;;;;0.00;0.00;;;;;;;;;;1738704;28;20209;-66
2023/12/15 01:17:36;;;;;;;0.00;0.00;;;;;;;;;;1738059;28;20234;-66
2023/12/15 01:18:27;;;;;;;0.08;0.08;;;;;;;;;;1738291;28;20209;-65
2023/12/15 01:19:19;;;;;;;0.10;0.10;;;;;;;;;;1738451;28;20676;-65
2023/12/15 01:20:13;;;;;;;0.00;0.00;;;;;;;;;;1738499;28;20211;-66
2023/12/15 01:21:05;;;;;;;0.00;0.00;;;;;;;;;;1737592;28;20231;-67
2023/12/15 01:21:57;;;;;;;0.00;0.00;;;;;;;;;;1738870;28;20924;-65
2023/12/15 01:22:50;;;;;;;0.00;0.00;;;;;;;;;;1738788;28;20233;-64
2023/12/15 01:23:42;;;;;;;0.10;0.10;;;;;;;;;;1738284;28;20253;-65
2023/12/15 01:24:33;;;;;;;0.00;0.00;;;;;;;;;;1737099;28;20211;-65
2023/12/15 01:25:24;;;;;;;0.00;0.00;;;;;;;;;;1734560;28;20280;-64
2023/12/15 01:26:17;;;;;;;0.00;0.00;;;;;;;;;;1729059;28;20252;-65
2023/12/15 01:27:08;;;;;;;0.00;0.00;;;;;;;;;;1732389;28;20266;-65
2023/12/15 01:28:00;;;;;;;0.10;0.10;;;;;;;;;;1729948;28;20212;-65
2023/12/15 01:28:51;;;;;;;0.00;0.00;;;;;;;;;;1727670;28;20665;-64
2023/12/15 01:29:42;;;;;;;0.00;0.00;;;;;;;;;;1729717;28;20546;-65
2023/12/15 01:30:34;;;;;;;0.00;0.00;;;;;;;;;;1732665;28;20727;-65
2023/12/15 01:31:25;;;;;;;0.20;0.20;;;;;;;;;;1738250;28;20203;-64
2023/12/15 01:32:16;;;;;;;0.20;0.20;;;;;;;;;;1738354;28;20235;-64
2023/12/15 01:33:08;;;;;;;0.00;0.00;;;;;;;;;;1738761;28;20636;-65
2023/12/15 01:33:59;;;;;;;0.10;0.10;;;;;;;;;;1738730;28;20273;-65
2023/12/15 01:34:50;;;;;;;0.00;0.00;;;;;;;;;;1738341;28;20202;-65
2023/12/15 01:35:42;;;;;;;0.00;0.00;;;;;;;;;;1737644;28;20270;-65
2023/12/15 01:36:34;;;;;;;0.00;0.00;;;;;;;;;;1738192;28;20256;-65
2023/12/15 01:37:25;;;;;;;0.00;0.00;;;;;;;;;;1738510;28;20203;-65
2023/12/15 01:38:18;;;;;;;0.00;0.00;;;;;;;;;;1738455;28;20206;-65
2023/12/15 01:39:09;;;;;;;0.00;0.00;;;;;;;;;;1738799;28;20215;-66
2023/12/15 01:40:02;;;;;;;0.03;0.03;;;;;;;;;;1738449;28;20214;-65
2023/12/15 01:40:53;;;;;;;0.00;0.00;;;;;;;;;;1737087;28;20786;-67
2023/12/15 01:41:44;;;;;;;0.00;0.00;;;;;;;;;;1738664;28;20237;-68
2023/12/15 01:42:36;;;;;;;0.00;0.00;;;;;;;;;;1738580;28;20205;-64
2023/12/15 01:43:27;;;;;;;0.10;0.10;;;;;;;;;;1738587;28;20210;-64
2023/12/15 01:44:18;;;;;;;0.00;0.00;;;;;;;;;;1738582;28;20203;-64
2023/12/15 01:45:11;;;;;;;0.00;0.00;;;;;;;;;;1738739;28;20785;-64
2023/12/15 01:46:02;;;;;;;0.00;0.00;;;;;;;;;;1737223;28;20292;-64
2023/12/15 01:46:53;;;;;;;0.00;0.00;;;;;;;;;;1738380;28;20245;-64
2023/12/15 01:47:45;;;;;;;0.00;0.00;;;;;;;;;;1737950;28;20296;-64
2023/12/15 01:48:36;;;;;;;0.10;0.10;;;;;;;;;;1738559;28;20210;-64
2023/12/15 01:49:28;;;;;;;0.00;0.00;;;;;;;;;;1738150;28;20210;-64
2023/12/15 01:50:19;;;;;;;0.00;0.00;;;;;;;;;;1738766;28;20634;-64
2023/12/15 01:51:10;;;;;;;0.08;0.08;;;;;;;;;;1737543;28;20593;-63
2023/12/15 01:52:02;;;;;;;0.00;0.00;;;;;;;;;;1738663;28;20697;-64
2023/12/15 01:52:54;;;;;;;0.00;0.00;;;;;;;;;;1738403;28;20210;-63
2023/12/15 01:53:47;;;;;;;0.10;0.10;;;;;;;;;;1737913;28;20214;-63
2023/12/15 01:54:38;;;;;;;0.00;0.00;;;;;;;;;;1735777;28;20727;-63
2023/12/15 01:55:29;;;;;;;0.10;0.10;;;;;;;;;;1737180;28;20723;-64
2023/12/15 01:56:21;;;;;;;0.10;0.10;;;;;;;;;;1738189;28;20681;-64
2023/12/15 01:57:12;;;;;;;0.10;0.10;;;;;;;;;;1738195;28;20268;-63
2023/12/15 01:58:03;;;;;;;0.00;0.00;;;;;;;;;;1738055;28;20663;-64
2023/12/15 01:58:55;;;;;;;0.10;0.10;;;;;;;;;;1738746;28;20232;-66
2023/12/15 01:59:49;;;;;;;0.00;0.00;;;;;;;;;;1737975;28;20252;-67
2023/12/15 02:00:40;;;;;;;0.10;0.10;;;;;;;;;;1737404;28;20238;-64
2023/12/15 02:01:31;;;;;;;0.00;0.00;;;;;;;;;;1737959;28;20197;-64
2023/12/15 02:02:22;;;;;;;0.08;0.08;;;;;;;;;;1738583;28;20659;-65
2023/12/15 02:03:14;;;;;;;0.10;0.10;;;;;;;;;;1738643;28;20675;-67
2023/12/15 02:04:06;;;;;;;0.10;0.10;;;;;;;;;;1738205;28;20211;-64
2023/12/15 02:04:57;;;;;;;0.10;0.10;;;;;;;;;;1738300;28;20252;-64
2023/12/15 02:05:49;;;;;;;0.00;0.00;;;;;;;;;;1737184;28;20230;-64
2023/12/15 02:06:41;;;;;;;0.00;0.00;;;;;;;;;;1738424;28;20358;-64
2023/12/15 02:07:32;;;;;;;0.10;0.10;;;;;;;;;;1738239;28;20276;-64
2023/12/15 02:08:24;;;;;;;0.00;0.00;;;;;;;;;;1738275;28;20203;-64
2023/12/15 02:09:16;;;;;;;0.00;0.00;;;;;;;;;;1739000;28;20207;-65
2023/12/15 02:10:08;;;;;;;0.10;0.10;;;;;;;;;;1738627;28;20214;-64
2023/12/15 02:10:59;;;;;;;0.10;0.10;;;;;;;;;;1737553;28;20321;-64
2023/12/15 02:11:50;;;;;;;0.10;0.10;;;;;;;;;;1738671;28;20212;-64
2023/12/15 02:12:42;;;;;;;0.10;0.10;;;;;;;;;;1738646;28;20250;-65
2023/12/15 02:13:33;;;;;;;0.00;0.00;;;;;;;;;;1738984;28;20264;-65
2023/12/15 02:14:24;;;;;;;0.00;0.00;;;;;;;;;;1738459;28;20211;-64
2023/12/15 02:15:16;;;;;;;0.00;0.00;;;;;;;;;;1739285;28;20656;-64
2023/12/15 02:16:08;;;;;;;0.00;0.00;;;;;;;;;;1737760;28;20243;-65
2023/12/15 02:16:59;;;;;;;0.05;0.05;;;;;;;;;;1738784;28;20214;-64
2023/12/15 02:17:51;;;;;;;0.00;0.00;;;;;;;;;;1738116;28;20247;-66
2023/12/15 02:18:42;;;;;;;0.00;0.00;;;;;;;;;;1738630;28;20271;-66
2023/12/15 02:19:33;;;;;;;0.10;0.10;;;;;;;;;;1738438;28;20195;-67
2023/12/15 02:20:25;;;;;;;0.00;0.00;;;;;;;;;;1737404;28;20202;-67
2023/12/15 02:21:16;;;;;;;0.00;0.00;;;;;;;;;;1739034;28;20215;-65
2023/12/15 02:22:07;;;;;;;0.00;0.00;;;;;;;;;;1738959;28;20249;-64
2023/12/15 02:23:00;;;;;;;0.10;0.10;;;;;;;;;;1738419;28;20198;-64
2023/12/15 02:23:51;;;;;;;0.10;0.10;;;;;;;;;;1737754;28;20325;-64
2023/12/15 02:24:43;;;;;;;0.10;0.10;;;;;;;;;;1738115;28;20494;-64
2023/12/15 02:25:34;;;;;;;0.00;0.00;;;;;;;;;;1737528;28;20210;-66
2023/12/15 02:26:26;;;;;;;0.05;0.05;;;;;;;;;;1738341;28;20224;-67
2023/12/15 02:27:17;;;;;;;0.00;0.00;;;;;;;;;;1738941;28;20199;-67
2023/12/15 02:28:08;;;;;;;0.00;0.00;;;;;;;;;;1738481;28;20264;-64
2023/12/15 02:29:00;;;;;;;0.00;0.00;;;;;;;;;;1738408;28;20214;-64
2023/12/15 02:29:51;;;;;;;0.10;0.10;;;;;;;;;;1738356;28;20562;-64
2023/12/15 02:30:43;;;;;;;0.10;0.10;;;;;;;;;;1737315;28;20567;-64
2023/12/15 02:31:34;;;;;;;0.00;0.00;;;;;;;;;;1737977;28;20260;-64
2023/12/15 02:32:25;;;;;;;0.00;0.00;;;;;;;;;;1738270;28;20293;-64
2023/12/15 02:33:17;;;;;;;0.10;0.10;;;;;;;;;;1738261;28;20233;-64
2023/12/15 02:34:08;;;;;;;0.20;0.20;;;;;;;;;;1738227;28;20293;-63
2023/12/15 02:34:59;;;;;;;0.00;0.00;;;;;;;;;;1738102;28;20207;-64
2023/12/15 02:35:51;;;;;;;0.10;0.10;;;;;;;;;;1737135;28;20329;-64
2023/12/15 02:36:42;;;;;;;0.10;0.10;;;;;;;;;;1738333;28;20271;-64
2023/12/15 02:37:34;;;;;;;0.05;0.05;;;;;;;;;;1738751;28;20218;-64
2023/12/15 02:38:26;;;;;;;0.00;0.00;;;;;;;;;;1739060;28;20206;-64
2023/12/15 02:39:18;;;;;;;0.10;0.10;;;;;;;;;;1739343;28;20577;-64
2023/12/15 02:40:10;;;;;;;0.10;0.10;;;;;;;;;;1739188;28;20210;-64
2023/12/15 02:41:01;;;;;;;0.10;0.10;;;;;;;;;;1736755;28;20231;-64
2023/12/15 02:41:53;;;;;;;0.00;0.00;;;;;;;;;;1738198;28;20224;-64
2023/12/15 02:42:44;;;;;;;0.00;0.00;;;;;;;;;;1738086;28;20237;-64
2023/12/15 02:43:35;;;;;;;0.10;0.10;;;;;;;;;;1737982;28;20209;-64
2023/12/15 02:44:27;;;;;;;0.10;0.10;;;;;;;;;;1737870;28;20302;-64
2023/12/15 02:45:18;;;;;;;0.00;0.00;;;;;;;;;;1737410;28;20210;-64
2023/12/15 02:46:09;;;;;;;0.00;0.00;;;;;;;;;;1737743;28;20673;-64
2023/12/15 02:47:01;;;;;;;0.00;0.00;;;;;;;;;;1738185;28;20202;-64
2023/12/15 02:47:52;;;;;;;0.00;0.00;;;;;;;;;;1737195;28;20230;-64
2023/12/15 02:48:44;;;;;;;0.00;0.00;;;;;;;;;;1738351;28;20256;-65
2023/12/15 02:49:37;;;;;;;0.05;0.05;;;;;;;;;;1737823;28;20207;-64
2023/12/15 02:50:29;;;;;;;0.05;0.05;;;;;;;;;;1737065;28;20202;-64
2023/12/15 02:51:27;;;;;;;0.00;0.00;;;;;;;;;;1738182;28;20699;-62
2023/12/15 02:52:18;;;;;;;0.00;0.00;;;;;;;;;;1731950;28;20273;-64
2023/12/15 02:53:10;;;;;;;0.10;0.10;;;;;;;;;;1737690;28;20324;-64
2023/12/15 02:54:04;;;;;;;0.13;0.13;;;;;;;;;;1735047;28;20621;-65
2023/12/15 02:54:55;;;;;;;0.00;0.00;;;;;;;;;;1734432;28;20212;-64
2023/12/15 02:55:47;;;;;;;0.10;0.10;;;;;;;;;;1733515;28;20227;-63
2023/12/15 02:56:38;;;;;;;0.00;0.00;;;;;;;;;;1733580;28;20669;-64
2023/12/15 02:57:31;;;;;;;0.00;0.00;;;;;;;;;;1736334;28;20819;-66
2023/12/15 02:58:22;;;;;;;0.00;0.00;;;;;;;;;;1737754;28;20317;-64
2023/12/15 02:59:13;;;;;;;0.10;0.10;;;;;;;;;;1738517;28;20203;-64
2023/12/15 03:00:05;;;;;;;0.00;0.00;;;;;;;;;;1738039;28;20483;-64
2023/12/15 03:00:56;;;;;;;0.05;0.05;;;;;;;;;;1737009;28;20231;-64
2023/12/15 03:01:47;;;;;;;0.00;0.00;;;;;;;;;;1738169;28;20257;-63
2023/12/15 03:02:40;;;;;;;0.05;0.05;;;;;;;;;;1737626;28;20253;-64
2023/12/15 03:03:31;;;;;;;0.10;0.10;;;;;;;;;;1738059;28;20637;-63
2023/12/15 03:04:22;;;;;;;0.00;0.00;;;;;;;;;;1737521;28;20229;-63
2023/12/15 03:05:14;;;;;;;0.00;0.00;;;;;;;;;;1738186;28;20321;-62
2023/12/15 03:06:06;;;;;;;0.00;0.00;;;;;;;;;;1737499;28;20372;-63
2023/12/15 03:06:57;;;;;;;0.30;0.30;;;;;;;;;;1738156;28;20298;-65
2023/12/15 03:07:49;;;;;;;0.00;0.00;;;;;;;;;;1737662;28;20222;-65
2023/12/15 03:08:40;;;;;;;0.00;0.00;;;;;;;;;;1738049;28;20791;-63
2023/12/15 03:09:32;;;;;;;0.03;0.03;;;;;;;;;;1737977;28;20680;-63
2023/12/15 03:10:24;;;;;;;0.10;0.10;;;;;;;;;;1736815;28;20306;-63
2023/12/15 03:11:15;;;;;;;0.00;0.00;;;;;;;;;;1738411;28;20199;-63
2023/12/15 03:12:06;;;;;;;0.00;0.00;;;;;;;;;;1738108;28;20679;-63
2023/12/15 03:12:58;;;;;;;0.00;0.00;;;;;;;;;;1737291;28;20609;-63
2023/12/15 03:13:49;;;;;;;0.00;0.00;;;;;;;;;;1737926;28;20264;-63
2023/12/15 03:14:40;;;;;;;0.05;0.05;;;;;;;;;;1737749;28;20199;-64
2023/12/15 03:15:32;;;;;;;0.10;0.10;;;;;;;;;;1736827;28;20897;-63
2023/12/15 03:16:24;;;;;;;0.00;0.00;;;;;;;;;;1737802;28;20198;-63
2023/12/15 03:17:16;;;;;;;0.00;0.00;;;;;;;;;;1738366;28;20214;-62
2023/12/15 03:18:08;;;;;;;0.00;0.00;;;;;;;;;;1737660;28;20203;-63
2023/12/15 03:18:59;;;;;;;0.00;0.00;;;;;;;;;;1738142;28;20893;-64
2023/12/15 03:19:50;;;;;;;0.00;0.00;;;;;;;;;;1737973;28;20684;-63
2023/12/15 03:20:42;;;;;;;0.00;0.00;;;;;;;;;;1737064;28;20226;-63
2023/12/15 03:21:33;;;;;;;0.03;0.03;;;;;;;;;;1738069;28;20690;-63
2023/12/15 03:22:24;;;;;;;0.10;0.10;;;;;;;;;;1738122;28;20205;-64
2023/12/15 03:23:16;;;;;;;0.00;0.00;;;;;;;;;;1738228;28;20214;-65
2023/12/15 03:24:07;;;;;;;0.00;0.00;;;;;;;;;;1737016;28;20239;-67
2023/12/15 03:25:00;;;;;;;0.05;0.05;;;;;;;;;;1737705;28;20721;-66
2023/12/15 03:25:51;;;;;;;0.10;0.10;;;;;;;;;;1736606;28;20227;-65
2023/12/15 03:26:42;;;;;;;0.00;0.00;;;;;;;;;;1737847;28;20215;-65
2023/12/15 03:27:34;;;;;;;0.00;0.00;;;;;;;;;;1737539;28;20244;-65
2023/12/15 03:28:26;;;;;;;0.00;0.00;;;;;;;;;;1738031;28;20293;-65
2023/12/15 03:29:17;;;;;;;0.00;0.00;;;;;;;;;;1738041;28;20211;-63
2023/12/15 03:30:08;;;;;;;0.00;0.00;;;;;;;;;;1738019;28;20325;-63
2023/12/15 03:31:00;;;;;;;0.05;0.05;;;;;;;;;;1736515;28;20250;-63
2023/12/15 03:31:51;;;;;;;0.00;0.00;;;;;;;;;;1737886;28;20715;-63
2023/12/15 03:32:43;;;;;;;0.00;0.00;;;;;;;;;;1737658;28;20697;-63
2023/12/15 03:33:35;;;;;;;0.00;0.00;;;;;;;;;;1737737;28;20207;-64
2023/12/15 03:34:27;;;;;;;0.00;0.00;;;;;;;;;;1737679;28;20330;-63
2023/12/15 03:35:18;;;;;;;0.00;0.00;;;;;;;;;;1737154;28;20206;-63
2023/12/15 03:36:09;;;;;;;0.00;0.00;;;;;;;;;;1737935;28;20206;-63
2023/12/15 03:37:01;;;;;;;0.00;0.00;;;;;;;;;;1737916;28;20222;-63
2023/12/15 03:37:52;;;;;;;0.00;0.00;;;;;;;;;;1737403;28;20291;-63
2023/12/15 03:38:43;;;;;;;0.10;0.10;;;;;;;;;;1738136;28;20555;-63
2023/12/15 03:39:35;;;;;;;0.00;0.00;;;;;;;;;;1737641;28;20235;-64
2023/12/15 03:40:28;;;;;;;0.00;0.00;;;;;;;;;;1736817;28;20666;-63
2023/12/15 03:41:20;;;;;;;0.00;0.00;;;;;;;;;;1738322;28;20206;-63
2023/12/15 03:42:11;;;;;;;0.10;0.10;;;;;;;;;;1737844;28;20635;-63
2023/12/15 03:43:02;;;;;;;0.00;0.00;;;;;;;;;;1737808;28;20294;-63
2023/12/15 03:43:54;;;;;;;0.10;0.10;;;;;;;;;;1738070;28;20199;-63
2023/12/15 03:44:45;;;;;;;0.10;0.10;;;;;;;;;;1737849;28;20206;-63
2023/12/15 03:45:37;;;;;;;0.20;0.20;;;;;;;;;;1736703;28;20768;-64
2023/12/15 03:46:29;;;;;;;0.10;0.10;;;;;;;;;;1738933;28;20195;-66
2023/12/15 03:47:20;;;;;;;0.10;0.10;;;;;;;;;;1739326;28;20203;-63
2023/12/15 03:48:11;;;;;;;0.05;0.05;;;;;;;;;;1738611;28;20211;-64
2023/12/15 03:49:03;;;;;;;0.10;0.10;;;;;;;;;;1739262;28;20213;-62
2023/12/15 03:49:54;;;;;;;0.10;0.10;;;;;;;;;;1738673;28;20207;-63
2023/12/15 03:50:45;;;;;;;0.00;0.00;;;;;;;;;;1738154;28;20235;-63
2023/12/15 03:51:37;;;;;;;0.00;0.00;;;;;;;;;;1738862;28;20249;-63
2023/12/15 03:52:31;;;;;;;0.00;0.00;;;;;;;;;;1739118;28;20207;-64
2023/12/15 03:53:23;;;;;;;0.00;0.00;;;;;;;;;;1739299;28;20227;-64
2023/12/15 03:54:14;;;;;;;0.08;0.08;;;;;;;;;;1735451;28;20264;-64
2023/12/15 03:55:06;;;;;;;0.00;0.00;;;;;;;;;;1739240;28;20207;-62
2023/12/15 03:55:59;;;;;;;0.10;0.10;;;;;;;;;;1737806;28;20729;-64
2023/12/15 03:56:55;;;;;;;0.05;0.05;;;;;;;;;;1735940;28;20203;-63
2023/12/15 03:57:46;;;;;;;0.00;0.00;;;;;;;;;;1738971;28;20222;-63
2023/12/15 03:58:38;;;;;;;0.00;0.00;;;;;;;;;;1739005;28;20199;-66
2023/12/15 03:59:29;;;;;;;0.10;0.10;;;;;;;;;;1738912;28;20203;-67
2023/12/15 04:00:20;;;;;;;0.08;0.08;;;;;;;;;;1739392;28;20195;-65
2023/12/15 04:01:12;;;;;;;0.10;0.10;;;;;;;;;;1737980;28;20620;-66
2023/12/15 04:02:03;;;;;;;0.00;0.00;;;;;;;;;;1739259;28;20260;-66
2023/12/15 04:02:54;;;;;;;0.08;0.08;;;;;;;;;;1738578;28;20210;-66
2023/12/15 04:03:46;;;;;;;0.10;0.10;;;;;;;;;;1739378;28;20218;-64
2023/12/15 04:04:37;;;;;;;0.00;0.00;;;;;;;;;;1738355;28;20245;-66
2023/12/15 04:05:29;;;;;;;0.00;0.00;;;;;;;;;;1738024;28;20520;-66
2023/12/15 04:06:20;;;;;;;0.03;0.03;;;;;;;;;;1739433;28;20646;-66
2023/12/15 04:07:12;;;;;;;0.00;0.00;;;;;;;;;;1738753;28;20202;-65
2023/12/15 04:08:03;;;;;;;0.00;0.00;;;;;;;;;;1738903;28;20847;-65
2023/12/15 04:08:55;;;;;;;0.08;0.08;;;;;;;;;;1738986;28;20248;-64
2023/12/15 04:09:47;;;;;;;0.00;0.00;;;;;;;;;;1739025;28;20297;-67
2023/12/15 04:10:39;;;;;;;0.00;0.00;;;;;;;;;;1738038;28;20765;-65
2023/12/15 04:11:31;;;;;;;0.05;0.05;;;;;;;;;;1738794;28;20202;-65
2023/12/15 04:12:23;;;;;;;0.00;0.00;;;;;;;;;;1739543;28;20203;-65
2023/12/15 04:13:14;;;;;;;0.00;0.00;;;;;;;;;;1738517;28;20234;-65
2023/12/15 04:14:06;;;;;;;0.00;0.00;;;;;;;;;;1739151;28;20254;-64
2023/12/15 04:14:57;;;;;;;0.00;0.00;;;;;;;;;;1738913;28;20211;-64
2023/12/15 04:15:48;;;;;;;0.03;0.03;;;;;;;;;;1737870;28;20227;-67
2023/12/15 04:16:41;;;;;;;0.03;0.03;;;;;;;;;;1738811;28;20258;-66
2023/12/15 04:17:32;;;;;;;0.00;0.00;;;;;;;;;;1738140;28;20230;-66
2023/12/15 04:18:23;;;;;;;0.00;0.00;;;;;;;;;;1739452;28;20213;-67
2023/12/15 04:19:15;;;;;;;0.00;0.00;;;;;;;;;;1738622;28;20218;-66
2023/12/15 04:20:08;;;;;;;0.00;0.00;;;;;;;;;;1738924;28;20214;-67
2023/12/15 04:20:59;;;;;;;0.00;0.00;;;;;;;;;;1737693;28;20255;-66
2023/12/15 04:21:51;;;;;;;0.00;0.00;;;;;;;;;;1738951;28;20632;-66
2023/12/15 04:22:42;;;;;;;0.00;0.00;;;;;;;;;;1738736;28;20264;-68
2023/12/15 04:23:33;;;;;;;0.10;0.10;;;;;;;;;;1738830;28;20195;-64
2023/12/15 04:24:26;;;;;;;0.17;0.17;;;;;;;;;;1738136;28;20250;-64
2023/12/15 04:25:17;;;;;;;0.00;0.00;;;;;;;;;;1738512;28;20214;-63
2023/12/15 04:26:09;;;;;;;0.10;0.10;;;;;;;;;;1738000;28;20231;-64
2023/12/15 04:27:01;;;;;;;0.00;0.00;;;;;;;;;;1739112;28;20215;-66
2023/12/15 04:27:52;;;;;;;0.00;0.00;;;;;;;;;;1738308;28;20230;-66
2023/12/15 04:28:44;;;;;;;0.10;0.10;;;;;;;;;;1739174;28;20210;-66
2023/12/15 04:29:35;;;;;;;0.00;0.00;;;;;;;;;;1738431;28;20666;-63
2023/12/15 04:30:26;;;;;;;0.10;0.10;;;;;;;;;;1738311;28;20609;-64
2023/12/15 04:31:18;;;;;;;0.20;0.20;;;;;;;;;;1739018;28;20206;-64
2023/12/15 04:32:09;;;;;;;0.00;0.00;;;;;;;;;;1738615;28;20626;-63
2023/12/15 04:33:01;;;;;;;0.00;0.00;;;;;;;;;;1738700;28;20551;-66
2023/12/15 04:33:52;;;;;;;0.00;0.00;;;;;;;;;;1738880;28;20203;-66
2023/12/15 04:34:44;;;;;;;0.00;0.00;;;;;;;;;;1738656;28;20756;-66
2023/12/15 04:35:35;;;;;;;0.00;0.00;;;;;;;;;;1737714;28;20235;-66
2023/12/15 04:36:27;;;;;;;0.00;0.00;;;;;;;;;;1738859;28;20253;-67
2023/12/15 04:37:18;;;;;;;0.00;0.00;;;;;;;;;;1739450;28;20206;-63
2023/12/15 04:38:09;;;;;;;0.00;0.00;;;;;;;;;;1738359;28;20298;-63
2023/12/15 04:39:02;;;;;;;0.05;0.05;;;;;;;;;;1739168;28;20203;-64
2023/12/15 04:39:53;;;;;;;0.08;0.08;;;;;;;;;;1738458;28;20681;-63
2023/12/15 04:40:44;;;;;;;0.00;0.00;;;;;;;;;;1737940;28;20709;-64
2023/12/15 04:41:36;;;;;;;0.00;0.00;;;;;;;;;;1738707;28;20203;-66
2023/12/15 04:42:29;;;;;;;0.00;0.00;;;;;;;;;;1739064;28;20260;-63
2023/12/15 04:43:21;;;;;;;0.00;0.00;;;;;;;;;;1739183;28;20210;-63
2023/12/15 04:44:12;;;;;;;0.10;0.10;;;;;;;;;;1737946;28;20211;-64
2023/12/15 04:45:06;;;;;;;0.10;0.10;;;;;;;;;;1738854;28;20256;-64
2023/12/15 04:45:57;;;;;;;0.08;0.08;;;;;;;;;;1737465;28;20291;-66
2023/12/15 04:46:50;;;;;;;0.20;0.20;;;;;;;;;;1738711;28;20234;-67
2023/12/15 04:47:41;;;;;;;0.00;0.00;;;;;;;;;;1738326;28;20594;-63
2023/12/15 04:48:32;;;;;;;0.20;0.20;;;;;;;;;;1738760;28;20206;-64
2023/12/15 04:49:24;;;;;;;0.00;0.00;;;;;;;;;;1739113;28;20712;-64
2023/12/15 04:50:15;;;;;;;0.00;0.00;;;;;;;;;;1738873;28;20276;-63
2023/12/15 04:51:06;;;;;;;0.05;0.05;;;;;;;;;;1737361;28;20289;-64
2023/12/15 04:51:59;;;;;;;0.20;0.20;;;;;;;;;;1739059;28;20211;-67
2023/12/15 04:52:50;;;;;;;0.03;0.03;;;;;;;;;;1738525;28;20264;-65
2023/12/15 04:53:41;;;;;;;0.00;0.00;;;;;;;;;;1738846;28;20276;-66
2023/12/15 04:54:33;;;;;;;0.10;0.10;;;;;;;;;;1738402;28;20206;-63
2023/12/15 04:55:24;;;;;;;0.00;0.00;;;;;;;;;;1738211;28;20290;-64
2023/12/15 04:56:15;;;;;;;0.00;0.00;;;;;;;;;;1738826;28;20225;-63
2023/12/15 04:57:07;;;;;;;0.10;0.10;;;;;;;;;;1738294;28;20232;-63
2023/12/15 04:58:00;;;;;;;0.00;0.00;;;;;;;;;;1738493;28;20662;-63
2023/12/15 04:58:52;;;;;;;0.10;0.10;;;;;;;;;;1738652;28;20289;-63
2023/12/15 04:59:43;;;;;;;0.03;0.03;;;;;;;;;;1738706;28;20680;-63
2023/12/15 05:00:35;;;;;;;0.00;0.00;;;;;;;;;;1737715;28;20609;-64
2023/12/15 05:01:26;;;;;;;0.00;0.00;;;;;;;;;;1738992;28;20207;-63
2023/12/15 05:02:17;;;;;;;0.20;0.20;;;;;;;;;;1738906;28;20261;-65
2023/12/15 05:03:09;;;;;;;0.00;0.00;;;;;;;;;;1738607;28;20290;-64
2023/12/15 05:04:01;;;;;;;0.00;0.00;;;;;;;;;;1738626;28;20210;-63
2023/12/15 05:04:52;;;;;;;0.10;0.10;;;;;;;;;;1738323;28;20644;-64
2023/12/15 05:05:47;;;;;;;0.10;0.10;;;;;;;;;;1737793;28;20230;-63
2023/12/15 05:06:38;;;;;;;0.00;0.00;;;;;;;;;;1738773;28;20203;-63
2023/12/15 05:07:29;;;;;;;0.00;0.00;;;;;;;;;;1738689;28;20218;-62
2023/12/15 05:08:21;;;;;;;0.00;0.00;;;;;;;;;;1739466;28;20905;-63
2023/12/15 05:09:12;;;;;;;0.00;0.00;;;;;;;;;;1738644;28;20268;-64